createdAt,value
2022-12-22T00:01:54.833Z,100425.19
2022-12-22T00:04:40.990Z,100417.72
2022-12-22T00:07:26.353Z,100424.19
2022-12-22T00:10:11.724Z,100427.16
2022-12-22T00:12:57.068Z,100425.19
2022-12-22T00:15:42.577Z,100425.53
2022-12-22T00:18:34.105Z,100422.53
2022-12-22T00:21:19.479Z,100409.63
2022-12-22T00:24:04.373Z,100417.91
2022-12-22T00:26:51.141Z,100405.03
2022-12-22T00:29:36.607Z,100403.38
2022-12-22T00:32:22.611Z,100410.00
2022-12-22T00:35:08.008Z,100401.22
2022-12-22T00:37:55.514Z,100397.44
2022-12-22T00:40:45.605Z,100394.47
2022-12-22T00:43:30.849Z,100377.56
2022-12-22T00:46:17.338Z,100373.50
2022-12-22T00:49:03.023Z,100373.06
2022-12-22T00:51:49.836Z,100368.06
2022-12-22T00:54:37.121Z,100369.16
2022-12-22T00:57:22.703Z,100355.28
2022-12-22T01:00:08.511Z,100362.41
2022-12-22T01:02:54.227Z,100349.63
2022-12-22T01:05:40.368Z,100345.34
2022-12-22T01:08:29.196Z,100335.50
2022-12-22T01:11:14.677Z,100348.53
2022-12-22T01:13:59.783Z,100330.28
2022-12-22T01:16:44.938Z,100331.72
2022-12-22T01:19:30.401Z,100326.84
2022-12-22T01:22:16.297Z,100325.19
2022-12-22T01:25:02.776Z,100320.69
2022-12-22T01:27:47.609Z,100305.31
2022-12-22T01:30:33.110Z,100304.00
2022-12-22T01:33:18.407Z,100293.09
2022-12-22T01:36:03.232Z,100287.06
2022-12-22T01:38:48.258Z,100293.09
2022-12-22T01:41:38.742Z,100293.34
2022-12-22T01:44:32.847Z,100288.72
2022-12-22T01:47:44.137Z,100299.13
2022-12-22T01:50:29.410Z,100284.31
2022-12-22T01:53:19.788Z,100277.72
2022-12-22T01:56:06.222Z,100288.38
2022-12-22T01:58:55.401Z,100285.41
2022-12-22T02:01:40.756Z,100269.31
2022-12-22T02:04:25.915Z,100267.19
2022-12-22T02:07:15.322Z,100269.41
2022-12-22T02:10:28.922Z,100268.09
2022-12-22T02:13:35.353Z,100268.69
2022-12-22T02:16:33.581Z,100257.19
2022-12-22T02:19:41.259Z,100257.78
2022-12-22T02:22:52.904Z,100248.19
2022-12-22T02:25:46.303Z,100244.88
2022-12-22T02:28:32.982Z,100235.28
2022-12-22T02:31:18.108Z,100235.06
2022-12-22T02:34:03.374Z,100241.84
2022-12-22T02:37:28.801Z,100243.56
2022-12-22T02:40:41.405Z,100241.91
2022-12-22T02:43:47.488Z,100235.88
2022-12-22T02:46:51.086Z,100241.34
2022-12-22T02:49:57.810Z,100238.13
2022-12-22T02:52:53.364Z,100241.34
2022-12-22T02:55:39.805Z,100232.56
2022-12-22T02:58:25.448Z,100231.50
2022-12-22T03:01:10.764Z,100233.66
2022-12-22T03:03:56.315Z,100228.44
2022-12-22T03:06:41.338Z,100228.78
2022-12-22T03:09:26.150Z,100227.13
2022-12-22T03:12:10.887Z,100223.34
2022-12-22T03:14:56.194Z,100217.88
2022-12-22T03:17:41.481Z,100218.38
2022-12-22T03:20:27.419Z,100206.16
2022-12-22T03:23:12.335Z,100203.69
2022-12-22T03:25:52.026Z,100203.69
2022-12-22T03:28:18.769Z,100193.03
2022-12-22T03:30:45.264Z,100188.50
2022-12-22T03:33:11.805Z,100193.63
2022-12-22T03:35:38.312Z,100187.34
2022-12-22T03:38:04.797Z,100185.47
2022-12-22T03:40:32.231Z,100185.19
2022-12-22T03:43:30.721Z,100177.63
2022-12-22T03:46:16.159Z,100169.69
2022-12-22T03:48:43.599Z,100176.47
2022-12-22T03:51:10.912Z,100177.53
2022-12-22T03:53:37.488Z,100168.34
2022-12-22T03:56:07.993Z,100167.19
2022-12-22T03:58:34.872Z,100166.13
2022-12-22T04:01:06.485Z,100161.19
2022-12-22T04:03:33.236Z,100161.19
2022-12-22T04:06:00.132Z,100153.84
2022-12-22T04:08:26.675Z,100154.66
2022-12-22T04:11:11.769Z,100156.88
2022-12-22T04:13:38.269Z,100150.84
2022-12-22T04:16:04.992Z,100138.78
2022-12-22T04:18:31.586Z,100142.13
2022-12-22T04:20:58.090Z,100142.94
2022-12-22T04:23:24.646Z,100149.47
2022-12-22T04:25:51.128Z,100151.44
2022-12-22T04:28:17.693Z,100153.34
2022-12-22T04:30:44.245Z,100158.28
2022-12-22T04:33:10.801Z,100164.81
2022-12-22T04:35:37.335Z,100164.66
2022-12-22T04:38:03.880Z,100165.16
2022-12-22T04:40:30.455Z,100169.50
2022-12-22T04:42:57.001Z,100162.91
2022-12-22T04:45:23.560Z,100162.34
2022-12-22T04:47:50.063Z,100165.63
2022-12-22T04:50:16.874Z,100163.41
2022-12-22T04:52:43.442Z,100157.97
2022-12-22T04:55:10.001Z,100157.97
2022-12-22T04:57:40.575Z,100166.72
2022-12-22T05:00:09.298Z,100174.63
2022-12-22T05:02:36.044Z,100178.09
2022-12-22T05:05:02.716Z,100174.06
2022-12-22T05:07:29.220Z,100171.56
2022-12-22T05:09:55.757Z,100167.19
2022-12-22T05:12:41.147Z,100166.41
2022-12-22T05:15:08.155Z,100165.06
2022-12-22T05:17:34.694Z,100163.41
2022-12-22T05:20:01.155Z,100167.19
2022-12-22T05:22:27.715Z,100172.16
2022-12-22T05:24:54.195Z,100180.56
2022-12-22T05:27:20.720Z,100180.81
2022-12-22T05:29:47.309Z,100186.03
2022-12-22T05:32:13.930Z,100180.91
2022-12-22T05:34:40.483Z,100187.41
2022-12-22T05:37:06.985Z,100186.34
2022-12-22T05:39:33.517Z,100191.72
2022-12-22T05:42:00.106Z,100194.28
2022-12-22T05:44:26.639Z,100186.13
2022-12-22T05:46:53.249Z,100188.50
2022-12-22T05:49:20.247Z,100198.59
2022-12-22T05:51:47.238Z,100195.59
2022-12-22T05:54:13.867Z,100206.50
2022-12-22T05:56:40.405Z,100203.69
2022-12-22T05:59:06.939Z,100219.13
2022-12-22T06:01:33.537Z,100220.81
2022-12-22T06:04:00.865Z,100227.31
2022-12-22T06:06:27.709Z,100234.16
2022-12-22T06:08:54.265Z,100237.94
2022-12-22T06:11:20.825Z,100244.00
2022-12-22T06:13:47.287Z,100244.00
2022-12-22T06:16:13.937Z,100241.03
2022-12-22T06:18:40.487Z,100245.38
2022-12-22T06:21:07.100Z,100253.56
2022-12-22T06:23:33.633Z,100247.28
2022-12-22T06:26:01.764Z,100256.28
2022-12-22T06:28:28.905Z,100256.28
2022-12-22T06:30:55.595Z,100253.91
2022-12-22T06:33:22.295Z,100258.03
2022-12-22T06:35:53.940Z,100268.94
2022-12-22T06:38:25.044Z,100276.63
2022-12-22T06:40:51.561Z,100283.97
2022-12-22T06:43:19.022Z,100302.81
2022-12-22T06:45:45.797Z,100300.31
2022-12-22T06:48:13.269Z,100292.38
2022-12-22T06:50:40.176Z,100295.38
2022-12-22T06:53:08.294Z,100294.53
2022-12-22T06:55:34.862Z,100295.03
2022-12-22T06:58:02.022Z,100311.94
2022-12-22T07:00:28.621Z,100321.19
2022-12-22T07:02:55.311Z,100325.25
2022-12-22T07:05:23.698Z,100331.53
2022-12-22T07:07:50.691Z,100332.59
2022-12-22T07:10:17.227Z,100331.19
2022-12-22T07:12:43.755Z,100334.97
2022-12-22T07:15:10.717Z,100339.34
2022-12-22T07:17:37.351Z,100333.56
2022-12-22T07:20:04.172Z,100341.75
2022-12-22T07:22:31.312Z,100332.13
2022-12-22T07:24:59.265Z,100341.41
2022-12-22T07:27:25.808Z,100334.53
2022-12-22T07:29:52.323Z,100338.09
2022-12-22T07:32:18.811Z,100347.59
2022-12-22T07:34:45.333Z,100354.69
2022-12-22T07:37:13.544Z,100345.91
2022-12-22T07:39:40.101Z,100360.38
2022-12-22T07:42:25.169Z,100365.00
2022-12-22T07:44:51.689Z,100374.81
2022-12-22T07:47:18.278Z,100377.78
2022-12-22T07:50:03.107Z,100390.56
2022-12-22T07:52:29.710Z,100392.72
2022-12-22T07:54:56.257Z,100394.84
2022-12-22T07:57:22.823Z,100407.50
2022-12-22T07:59:49.353Z,100416.53
2022-12-22T08:02:16.027Z,100431.19
2022-12-22T08:04:42.726Z,100441.03
2022-12-22T08:07:09.273Z,100441.88
2022-12-22T08:09:35.836Z,100459.03
2022-12-22T08:12:02.359Z,100457.88
2022-12-22T08:14:28.924Z,100458.09
2022-12-22T08:16:55.535Z,100458.09
2022-12-22T08:19:22.160Z,100458.31
2022-12-22T08:21:52.843Z,100455.59
2022-12-22T08:24:20.270Z,100452.28
2022-12-22T08:26:51.167Z,100449.56
2022-12-22T08:29:26.916Z,100469.22
2022-12-22T08:31:54.489Z,100469.22
2022-12-22T08:34:21.201Z,100474.09
2022-12-22T08:36:51.133Z,100490.41
2022-12-22T08:39:20.115Z,100497.53
2022-12-22T08:41:53.290Z,100505.69
2022-12-22T08:44:23.725Z,100517.66
2022-12-22T08:46:51.916Z,100517.31
2022-12-22T08:49:19.183Z,100526.31
2022-12-22T08:51:46.472Z,100524.03
2022-12-22T08:54:13.395Z,100528.41
2022-12-22T08:56:40.073Z,100539.78
2022-12-22T08:59:08.075Z,100544.66
2022-12-22T09:01:36.974Z,100538.59
2022-12-22T09:04:04.734Z,100544.06
2022-12-22T09:06:38.527Z,100552.69
2022-12-22T09:09:09.691Z,100554.13
2022-12-22T09:11:36.450Z,100560.16
2022-12-22T09:14:03.673Z,100559.81
2022-12-22T09:16:32.536Z,100558.72
2022-12-22T09:18:59.719Z,100567.97
2022-12-22T09:21:26.318Z,100559.19
2022-12-22T09:23:53.836Z,100568.22
2022-12-22T09:26:22.371Z,100576.59
2022-12-22T09:28:50.802Z,100572.25
2022-12-22T09:31:18.632Z,100579.09
2022-12-22T09:33:45.236Z,100588.09
2022-12-22T09:36:17.207Z,100595.22
2022-12-22T09:38:44.202Z,100581.59
2022-12-22T09:41:50.842Z,100580.88
2022-12-22T09:44:37.700Z,100590.69
2022-12-22T09:47:16.445Z,100594.38
2022-12-22T09:49:42.948Z,100592.00
2022-12-22T09:52:40.616Z,100596.41
2022-12-22T09:55:25.197Z,100604.56
2022-12-22T09:57:53.557Z,100613.31
2022-12-22T10:00:23.869Z,100616.25
2022-12-22T10:03:15.164Z,100619.97
2022-12-22T10:05:52.824Z,100606.56
2022-12-22T10:08:27.525Z,100610.38
2022-12-22T10:10:56.175Z,100617.25
2022-12-22T10:13:22.942Z,100611.19
2022-12-22T10:15:50.045Z,100622.47
2022-12-22T10:18:20.286Z,100625.97
2022-12-22T10:21:06.123Z,100621.63
2022-12-22T10:23:38.575Z,100620.44
2022-12-22T10:26:30.120Z,100638.19
2022-12-22T10:29:07.330Z,100632.97
2022-12-22T10:31:36.226Z,100634.06
2022-12-22T10:34:14.021Z,100641.38
2022-12-22T10:36:46.236Z,100632.84
2022-12-22T10:39:24.178Z,100636.16
2022-12-22T10:41:55.032Z,100639.97
2022-12-22T10:44:26.249Z,100643.13
2022-12-22T10:46:56.183Z,100645.03
2022-12-22T10:52:32.248Z,100642.09
2022-12-22T10:55:22.087Z,100641.59
2022-12-22T10:57:50.390Z,100636.53
2022-12-22T11:00:23.227Z,100646.97
2022-12-22T11:02:55.216Z,100658.41
2022-12-22T11:05:21.962Z,100656.75
2022-12-22T11:07:48.705Z,100662.81
2022-12-22T11:10:19.588Z,100656.91
2022-12-22T11:12:54.805Z,100663.53
2022-12-22T11:15:49.402Z,100672.06
2022-12-22T11:18:24.593Z,100677.97
2022-12-22T11:21:03.285Z,100675.25
2022-12-22T11:23:43.139Z,100673.38
2022-12-22T11:26:18.825Z,100676.94
2022-12-22T11:28:55.169Z,100681.06
2022-12-22T11:31:55.837Z,100683.31
2022-12-22T11:34:55.679Z,100686.66
2022-12-22T11:37:44.121Z,100685.00
2022-12-22T11:40:28.936Z,100686.66
2022-12-22T11:43:10.788Z,100688.75
2022-12-22T11:45:59.514Z,100692.53
2022-12-22T11:48:49.674Z,100692.09
2022-12-22T11:52:00.217Z,100699.81
2022-12-22T11:54:58.626Z,100702.06
2022-12-22T11:57:56.461Z,100689.28
2022-12-22T12:00:32.628Z,100687.41
2022-12-22T12:03:38.077Z,100678.16
2022-12-22T12:06:15.027Z,100681.13
2022-12-22T12:09:10.887Z,100670.22
2022-12-22T12:11:52.411Z,100680.88
2022-12-22T12:14:34.542Z,100696.59
2022-12-22T12:17:15.565Z,100674.28
2022-12-22T12:20:00.741Z,100662.88
2022-12-22T12:22:50.931Z,100661.94
2022-12-22T12:25:38.797Z,100646.66
2022-12-22T12:28:19.478Z,100650.56
2022-12-22T12:30:54.079Z,100632.44
2022-12-22T12:33:38.532Z,100641.34
2022-12-22T12:36:07.913Z,100628.66
2022-12-22T12:39:08.355Z,100636.94
2022-12-22T12:42:09.573Z,100631.84
2022-12-22T12:44:37.305Z,100627.22
2022-12-22T12:47:23.679Z,100627.84
2022-12-22T12:49:54.706Z,100632.09
2022-12-22T12:52:39.599Z,100631.84
2022-12-22T12:55:32.594Z,100636.50
2022-12-22T12:58:03.262Z,100631.97
2022-12-22T13:00:33.144Z,100633.88
2022-12-22T13:06:49.741Z,100633.63
2022-12-22T13:12:48.694Z,100626.53
2022-12-22T13:15:27.501Z,100622.75
2022-12-22T13:17:54.155Z,100609.13
2022-12-22T13:20:35.708Z,100627.13
2022-12-22T13:23:10.284Z,100623.56
2022-12-22T13:25:42.743Z,100620.00
2022-12-22T13:28:16.205Z,100628.19
2022-12-22T13:30:57.834Z,100625.25
2022-12-22T13:33:27.038Z,100633.63
2022-12-22T13:35:58.805Z,100626.53
2022-12-22T13:38:32.057Z,100626.53
2022-12-22T13:41:02.617Z,100617.78
2022-12-22T13:43:32.219Z,100616.69
2022-12-22T13:46:02.572Z,100612.31
2022-12-22T13:48:44.620Z,100612.91
2022-12-22T13:51:18.902Z,100606.59
2022-12-22T13:54:07.866Z,100601.41
2022-12-22T13:56:39.875Z,100602.25
2022-12-22T13:59:20.093Z,100599.28
2022-12-22T14:01:51.483Z,100597.03
2022-12-22T14:04:18.324Z,100592.97
2022-12-22T14:06:44.972Z,100579.13
2022-12-22T14:09:27.633Z,100582.91
2022-12-22T14:12:00.358Z,100588.38
2022-12-22T14:14:34.913Z,100583.41
2022-12-22T14:17:02.576Z,100580.69
2022-12-22T14:19:35.244Z,100584.22
2022-12-22T14:22:11.142Z,100583.41
2022-12-22T14:24:44.479Z,100569.16
2022-12-22T14:27:37.209Z,100574.16
2022-12-22T14:30:25.964Z,100559.94
2022-12-22T14:32:56.533Z,100558.25
2022-12-22T14:35:27.216Z,100560.41
2022-12-22T14:37:55.323Z,100553.31
2022-12-22T14:40:36.070Z,100556.84
2022-12-22T14:43:05.631Z,100560.41
2022-12-22T14:45:33.229Z,100548.69
2022-12-22T14:47:59.818Z,100540.50
2022-12-22T14:50:29.057Z,100535.88
2022-12-22T14:53:04.995Z,100536.94
2022-12-22T14:55:39.569Z,100535.31
2022-12-22T14:58:08.934Z,100532.59
2022-12-22T15:00:41.416Z,100546.22
2022-12-22T15:03:37.055Z,100536.13
2022-12-22T15:06:28.608Z,100544.28
2022-12-22T15:09:13.302Z,100537.22
2022-12-22T15:11:46.056Z,100539.59
2022-12-22T15:14:17.428Z,100533.53
2022-12-22T15:16:45.284Z,100527.03
2022-12-22T15:19:17.950Z,100527.03
2022-12-22T15:21:44.567Z,100513.63
2022-12-22T15:24:16.501Z,100516.00
2022-12-22T15:26:44.392Z,100513.28
2022-12-22T15:29:11.503Z,100503.69
2022-12-22T15:31:40.303Z,100496.81
2022-12-22T15:34:31.761Z,100499.53
2022-12-22T15:36:58.346Z,100506.41
2022-12-22T15:39:24.907Z,100494.69
2022-12-22T15:41:51.457Z,100494.09
2022-12-22T15:44:18.348Z,100479.88
2022-12-22T15:46:54.175Z,100485.13
2022-12-22T15:49:23.576Z,100490.56
2022-12-22T15:51:53.988Z,100485.13
2022-12-22T15:54:21.604Z,100482.00
2022-12-22T15:56:52.356Z,100485.34
2022-12-22T15:59:23.772Z,100471.72
2022-12-22T16:01:56.595Z,100473.38
2022-12-22T16:04:28.227Z,100465.66
2022-12-22T16:06:54.826Z,100464.13
2022-12-22T16:09:25.149Z,100466.50
2022-12-22T16:11:51.797Z,100451.00
2022-12-22T16:14:20.449Z,100444.47
2022-12-22T16:16:48.377Z,100436.06
2022-12-22T16:19:17.133Z,100441.75
2022-12-22T16:21:47.242Z,100440.69
2022-12-22T16:24:35.781Z,100429.31
2022-12-22T16:27:03.037Z,100418.28
2022-12-22T16:29:30.050Z,100417.81
2022-12-22T16:32:32.173Z,100418.41
2022-12-22T16:35:20.405Z,100413.53
2022-12-22T16:37:48.949Z,100401.00
2022-12-22T16:40:17.749Z,100408.34
2022-12-22T16:45:45.168Z,100395.56
2022-12-22T16:48:34.159Z,100389.34
2022-12-22T16:51:00.906Z,100383.09
2022-12-22T16:53:29.009Z,100368.66
2022-12-22T16:55:55.976Z,100383.34
2022-12-22T16:58:22.542Z,100382.00
2022-12-22T17:00:49.061Z,100371.13
2022-12-22T17:03:20.708Z,100364.59
2022-12-22T17:05:50.500Z,100371.13
2022-12-22T17:08:25.140Z,100369.81
2022-12-22T17:10:53.024Z,100369.56
2022-12-22T17:13:20.731Z,100360.22
2022-12-22T17:15:47.540Z,100355.94
2022-12-22T17:18:16.832Z,100357.59
2022-12-22T17:20:45.363Z,100354.38
2022-12-22T17:23:24.074Z,100358.78
2022-12-22T17:25:50.568Z,100349.88
2022-12-22T17:28:17.234Z,100342.75
2022-12-22T17:30:43.770Z,100341.44
2022-12-22T17:33:16.041Z,100339.31
2022-12-22T17:35:44.584Z,100322.94
2022-12-22T17:38:19.570Z,100330.63
2022-12-22T17:40:48.051Z,100329.06
2022-12-22T17:43:19.697Z,100321.50
2022-12-22T17:45:47.317Z,100308.19
2022-12-22T17:48:15.884Z,100307.88
2022-12-22T17:50:49.949Z,100307.94
2022-12-22T17:53:20.869Z,100307.94
2022-12-22T17:58:35.244Z,100298.19
2022-12-22T18:01:01.895Z,100302.06
2022-12-22T18:03:28.500Z,100295.88
2022-12-22T18:05:55.431Z,100295.28
2022-12-22T18:08:22.253Z,100292.31
2022-12-22T18:10:49.406Z,100295.97
2022-12-22T18:13:25.771Z,100306.06
2022-12-22T18:15:53.190Z,100294.41
2022-12-22T18:18:20.871Z,100280.78
2022-12-22T18:21:07.672Z,100294.13
2022-12-22T18:23:36.954Z,100295.22
2022-12-22T18:26:05.974Z,100278.84
2022-12-22T18:28:32.534Z,100277.63
2022-12-22T18:30:59.293Z,100282.06
2022-12-22T18:33:25.816Z,100279.03
2022-12-22T18:35:52.431Z,100275.69
2022-12-22T18:38:27.224Z,100282.06
2022-12-22T18:40:53.957Z,100276.72
2022-12-22T18:43:20.538Z,100280.28
2022-12-22T18:45:47.221Z,100272.31
2022-12-22T18:48:13.717Z,100272.22
2022-12-22T18:50:41.194Z,100268.25
2022-12-22T18:53:22.960Z,100273.72
2022-12-22T18:55:49.587Z,100267.50
2022-12-22T18:58:16.174Z,100264.47
2022-12-22T19:00:43.488Z,100256.91
2022-12-22T19:03:20.117Z,100270.84
2022-12-22T19:05:47.707Z,100260.81
2022-12-22T19:08:16.482Z,100263.28
2022-12-22T19:10:46.681Z,100260.81
2022-12-22T19:13:27.711Z,100261.88
2022-12-22T19:15:54.964Z,100259.22
2022-12-22T19:18:27.091Z,100258.97
2022-12-22T19:20:55.517Z,100269.38
2022-12-22T19:23:24.005Z,100259.81
2022-12-22T19:25:56.291Z,100268.88
2022-12-22T19:28:28.271Z,100264.81
2022-12-22T19:30:55.889Z,100267.06
2022-12-22T19:33:37.493Z,100265.91
2022-12-22T19:36:05.455Z,100280.13
2022-12-22T19:38:35.367Z,100268.69
2022-12-22T19:41:04.275Z,100273.81
2022-12-22T19:43:31.075Z,100276.63
2022-12-22T19:45:57.762Z,100268.38
2022-12-22T19:48:26.530Z,100276.88
2022-12-22T19:50:54.013Z,100275.81
2022-12-22T19:53:20.977Z,100272.56
2022-12-22T19:55:56.442Z,100281.59
2022-12-22T19:58:31.331Z,100274.47
2022-12-22T20:00:58.708Z,100262.75
2022-12-22T20:03:26.208Z,100263.22
2022-12-22T20:05:52.817Z,100258.91
2022-12-22T20:08:19.489Z,100278.03
2022-12-22T20:10:46.393Z,100280.28
2022-12-22T20:13:19.244Z,100278.28
2022-12-22T20:15:45.970Z,100272.84
2022-12-22T20:18:24.759Z,100273.72
2022-12-22T20:21:03.466Z,100267.09
2022-12-22T20:23:33.655Z,100270.09
2022-12-22T20:26:03.992Z,100274.47
2022-12-22T20:28:33.950Z,100268.22
2022-12-22T20:31:02.543Z,100267.38
2022-12-22T20:33:29.595Z,100269.00
2022-12-22T20:35:57.996Z,100266.03
2022-12-22T20:38:33.149Z,100273.91
2022-12-22T20:41:00.422Z,100267.06
2022-12-22T20:43:28.900Z,100282.34
2022-12-22T20:46:00.289Z,100277.47
2022-12-22T20:48:39.258Z,100280.19
2022-12-22T20:51:10.221Z,100274.97
2022-12-22T20:53:36.949Z,100265.16
2022-12-22T20:56:03.685Z,100270.34
2022-12-22T20:58:35.075Z,100280.94
2022-12-22T21:01:02.281Z,100279.28
2022-12-22T21:03:29.071Z,100276.63
2022-12-22T21:05:55.688Z,100272.00
2022-12-22T21:08:26.739Z,100284.50
2022-12-22T21:10:54.949Z,100291.09
2022-12-22T21:13:21.846Z,100282.34
2022-12-22T21:15:51.910Z,100296.56
2022-12-22T21:18:23.675Z,100284.59
2022-12-22T21:20:51.336Z,100279.59
2022-12-22T21:23:17.953Z,100274.97
2022-12-22T21:25:48.289Z,100286.16
2022-12-22T21:28:27.053Z,100281.78
2022-12-22T21:30:53.612Z,100279.13
2022-12-22T21:33:20.249Z,100269.78
2022-12-22T21:35:46.771Z,100270.09
2022-12-22T21:38:18.682Z,100280.75
2022-12-22T21:40:48.134Z,100287.94
2022-12-22T21:43:15.837Z,100274.75
2022-12-22T21:45:44.118Z,100269.28
2022-12-22T21:48:18.576Z,100268.44
2022-12-22T21:50:47.118Z,100266.56
2022-12-22T21:53:19.823Z,100272.56
2022-12-22T21:55:49.065Z,100261.91
2022-12-22T21:58:15.675Z,100251.84
2022-12-22T22:00:47.024Z,100258.59
2022-12-22T22:03:14.767Z,100256.97
2022-12-22T22:05:42.373Z,100267.63
2022-12-22T22:08:11.272Z,100266.78
2022-12-22T22:10:40.516Z,100266.56
2022-12-22T22:13:07.294Z,100268.22
2022-12-22T22:15:34.654Z,100284.06
2022-12-22T22:18:06.851Z,100282.41
2022-12-22T22:20:34.109Z,100279.44
2022-12-22T22:23:00.846Z,100297.44
2022-12-22T22:25:27.855Z,100283.47
2022-12-22T22:27:59.381Z,100289.53
2022-12-22T22:30:26.079Z,100291.75
2022-12-22T22:32:54.063Z,100294.47
2022-12-22T22:35:21.893Z,100284.59
2022-12-22T22:37:52.133Z,100289.25
2022-12-22T22:40:21.516Z,100298.22
2022-12-22T22:42:48.618Z,100301.00
2022-12-22T22:45:23.015Z,100294.41
2022-12-22T22:47:51.134Z,100291.94
2022-12-22T22:50:19.054Z,100296.28
2022-12-22T22:52:46.221Z,100304.16
2022-12-22T22:55:14.176Z,100293.84
2022-12-22T22:57:42.190Z,100293.75
2022-12-22T23:00:11.664Z,100303.94
2022-12-22T23:02:38.753Z,100295.75
2022-12-22T23:05:05.781Z,100296.28
2022-12-22T23:07:32.450Z,100291.66
2022-12-22T23:09:58.942Z,100296.28
2022-12-22T23:12:25.648Z,100297.97
2022-12-22T23:14:52.220Z,100309.16
2022-12-22T23:17:19.204Z,100308.31
2022-12-22T23:19:45.728Z,100300.13
2022-12-22T23:22:12.632Z,100304.25
2022-12-22T23:24:39.150Z,100297.13
2022-12-22T23:27:05.772Z,100305.31
2022-12-22T23:29:32.305Z,100309.94
2022-12-22T23:31:58.897Z,100306.16
2022-12-22T23:34:25.508Z,100302.34
2022-12-22T23:36:52.017Z,100307.56
2022-12-22T23:39:18.574Z,100317.66
2022-12-22T23:41:45.183Z,100304.84
2022-12-22T23:44:11.819Z,100301.53
2022-12-22T23:46:38.344Z,100303.19
2022-12-22T23:49:04.842Z,100301.53
2022-12-22T23:51:31.559Z,100298.78
2022-12-22T23:54:00.872Z,100296.88
2022-12-22T23:56:29.479Z,100297.97
2022-12-22T23:58:56.507Z,100291.94
